Time;durP1;ratioP1;P1;durP2;ratioP2;P2;SDS_P1;SDS_P2;PMS_P1;PMS_P2;Temp;Humidity;BMP_temperature;BMP_pressure;BME280_temperature;BME280_humidity;BME280_pressure;Samples;Min_cycle;Max_cycle;Signal;HPM_P1;HPM_P2
2024/03/23 00:01:08;;;;;;;3.63;3.10;;;;;;;7.26;100.00;97229.94;6302864;28;20376;-57
2024/03/23 00:04:12;;;;;;;5.60;3.30;;;;;;;7.27;100.00;97235.00;6311536;28;20209;-59
2024/03/23 00:07:15;;;;;;;7.33;3.23;;;;;;;7.27;100.00;97231.53;6308675;28;20695;-58
2024/03/23 00:10:17;;;;;;;4.13;2.87;;;;;;;7.71;100.00;97228.25;6308342;28;20199;-58
2024/03/23 00:13:19;;;;;;;6.93;4.73;;;;;;;7.40;100.00;97229.47;6293365;28;20198;-57
2024/03/23 00:16:25;;;;;;;7.67;4.83;;;;;;;7.46;100.00;97223.22;6312474;28;20190;-59
2024/03/23 00:19:27;;;;;;;5.00;3.83;;;;;;;8.00;100.00;97218.47;6302404;28;20728;-59
2024/03/23 00:22:30;;;;;;;4.47;3.63;;;;;;;7.71;100.00;97212.34;6303066;28;20193;-59
2024/03/23 00:25:32;;;;;;;3.57;3.27;;;;;;;7.80;100.00;97210.13;6286243;28;20213;-59
2024/03/23 00:28:34;;;;;;;3.97;2.77;;;;;;;7.62;100.00;97203.13;6302679;28;20194;-57
2024/03/23 00:31:36;;;;;;;8.60;3.13;;;;;;;7.68;100.00;97199.53;6305667;28;20197;-56
2024/03/23 00:34:38;;;;;;;5.10;3.13;;;;;;;7.58;100.00;97195.88;6307243;28;20197;-59
2024/03/23 00:37:40;;;;;;;2.57;2.37;;;;;;;7.58;100.00;97190.59;6302905;28;20190;-59
2024/03/23 00:40:42;;;;;;;6.87;2.80;;;;;;;7.71;100.00;97179.72;6303935;28;20665;-58
2024/03/23 00:43:44;;;;;;;3.50;3.03;;;;;;;7.65;100.00;97181.47;6310716;28;20268;-57
2024/03/23 00:46:46;;;;;;;3.47;3.13;;;;;;;7.63;100.00;97180.88;6303770;28;20727;-58
2024/03/23 00:49:48;;;;;;;4.13;2.83;;;;;;;7.70;100.00;97167.50;6304673;28;20247;-59
2024/03/23 00:52:50;;;;;;;4.17;2.93;;;;;;;7.68;100.00;97166.94;6302874;28;20233;-59
2024/03/23 00:55:51;;;;;;;3.33;2.90;;;;;;;7.72;100.00;97160.91;6304530;28;20190;-58
2024/03/23 00:58:52;;;;;;;3.83;2.93;;;;;;;7.55;100.00;97161.91;6310727;28;20193;-56
2024/03/23 01:01:53;;;;;;;6.33;3.30;;;;;;;7.57;100.00;97157.97;6305127;28;20196;-58
2024/03/23 01:04:54;;;;;;;3.20;2.90;;;;;;;7.72;100.00;97150.31;6301801;28;20197;-59
2024/03/23 01:07:55;;;;;;;5.93;3.33;;;;;;;7.62;100.00;97152.78;6301453;28;20197;-58
2024/03/23 01:10:58;;;;;;;4.33;2.87;;;;;;;7.68;100.00;97151.03;6301677;28;20311;-58
2024/03/23 01:13:59;;;;;;;5.03;3.00;;;;;;;7.85;100.00;97151.91;6289735;28;20206;-59
2024/03/23 01:17:00;;;;;;;5.83;2.90;;;;;;;7.63;100.00;97148.28;6303876;28;20201;-58
2024/03/23 01:20:02;;;;;;;2.97;2.63;;;;;;;7.62;100.00;97146.66;6301011;28;20226;-57
2024/03/23 01:23:04;;;;;;;3.10;2.77;;;;;;;7.52;100.00;97139.31;6312311;28;20665;-56
2024/03/23 01:26:05;;;;;;;3.53;2.73;;;;;;;7.53;100.00;97140.13;6307950;28;20191;-58
2024/03/23 01:29:06;;;;;;;7.07;3.10;;;;;;;7.41;100.00;97125.06;6297190;28;20701;-60
2024/03/23 01:32:07;;;;;;;8.17;3.03;;;;;;;7.52;100.00;97135.88;6306619;28;20646;-60
2024/03/23 01:35:08;;;;;;;4.50;3.10;;;;;;;7.54;100.00;97137.25;6304757;28;20196;-58
2024/03/23 01:38:09;;;;;;;4.73;2.60;;;;;;;7.58;100.00;97134.91;6308067;28;20198;-60
2024/03/23 01:41:10;;;;;;;3.17;2.73;;;;;;;7.59;100.00;97128.59;6303149;28;20194;-60
2024/03/23 01:44:11;;;;;;;4.23;2.33;;;;;;;7.68;100.00;97132.47;6297478;28;20196;-59
2024/03/23 01:47:12;;;;;;;3.57;2.70;;;;;;;7.62;100.00;97128.13;6290893;28;20201;-56
2024/03/23 01:50:14;;;;;;;4.10;2.90;;;;;;;7.61;100.00;97118.56;6308929;28;20197;-58
2024/03/23 01:53:17;;;;;;;4.20;3.27;;;;;;;7.55;100.00;97116.84;6305512;28;20199;-59
2024/03/23 01:56:18;;;;;;;3.87;3.00;;;;;;;7.62;100.00;97123.63;6307566;28;20193;-59
2024/03/23 01:59:19;;;;;;;2.87;2.47;;;;;;;7.79;100.00;97121.03;6300189;28;20561;-57
2024/03/23 02:02:20;;;;;;;3.57;3.17;;;;;;;7.66;100.00;97105.41;6300288;28;20194;-59
2024/03/23 02:05:22;;;;;;;4.00;2.70;;;;;;;7.53;100.00;97098.53;6305082;28;20193;-58
2024/03/23 02:08:24;;;;;;;6.93;3.13;;;;;;;7.58;100.00;97103.13;6306123;28;20490;-60
2024/03/23 02:11:25;;;;;;;3.57;3.27;;;;;;;7.61;100.00;97108.75;6309540;28;20214;-60
2024/03/23 02:14:26;;;;;;;3.10;2.47;;;;;;;7.61;100.00;97095.50;6300414;28;20604;-57
2024/03/23 02:17:28;;;;;;;3.03;2.50;;;;;;;7.71;100.00;97092.25;6302015;28;20205;-59
2024/03/23 02:20:29;;;;;;;3.43;3.03;;;;;;;7.66;100.00;97094.78;6305843;28;20197;-59
2024/03/23 02:23:30;;;;;;;3.50;2.87;;;;;;;7.64;100.00;97086.28;6299049;28;20191;-59
2024/03/23 02:26:31;;;;;;;4.33;2.73;;;;;;;7.67;100.00;97085.78;6299426;28;20177;-56
2024/03/23 02:29:32;;;;;;;3.17;2.87;;;;;;;7.60;100.00;97072.69;6299725;28;20194;-59
2024/03/23 02:32:33;;;;;;;4.70;2.87;;;;;;;7.59;100.00;97070.28;6304658;28;20607;-56
2024/03/23 02:35:34;;;;;;;4.23;2.77;;;;;;;7.60;100.00;97066.59;6299926;28;20185;-60
2024/03/23 02:38:35;;;;;;;4.43;2.63;;;;;;;7.60;100.00;97058.63;6297720;28;20189;-59
2024/03/23 02:41:37;;;;;;;6.73;2.83;;;;;;;7.59;100.00;97051.75;6302725;28;20225;-59
2024/03/23 02:44:37;;;;;;;5.63;2.80;;;;;;;7.74;100.00;97044.06;6306767;28;20243;-59
2024/03/23 02:47:39;;;;;;;2.90;2.60;;;;;;;7.62;100.00;97044.09;6300359;28;20983;-57
2024/03/23 02:50:40;;;;;;;2.70;2.47;;;;;;;7.54;100.00;97031.25;6311234;28;20204;-55
2024/03/23 02:53:41;;;;;;;4.27;2.60;;;;;;;7.55;100.00;97037.34;6300070;28;20580;-58
2024/03/23 02:56:42;;;;;;;5.37;2.53;;;;;;;7.57;100.00;97040.56;6297176;28;20190;-59
2024/03/23 02:59:43;;;;;;;2.63;2.43;;;;;;;7.56;100.00;97031.78;6302425;28;20193;-59
2024/03/23 03:02:44;;;;;;;3.17;2.87;;;;;;;7.50;100.00;97040.72;6298863;28;20197;-57
2024/03/23 03:05:45;;;;;;;3.87;2.50;;;;;;;7.48;100.00;97032.97;6298963;28;20194;-60
2024/03/23 03:08:46;;;;;;;10.20;3.37;;;;;;;7.46;100.00;97032.41;6307291;28;20244;-59
2024/03/23 03:11:47;;;;;;;3.93;2.70;;;;;;;7.40;100.00;97036.03;6304249;28;20675;-59
2024/03/23 03:14:48;;;;;;;2.90;2.60;;;;;;;7.37;100.00;97025.09;6299025;28;20195;-59
2024/03/23 03:17:49;;;;;;;3.13;2.80;;;;;;;7.41;100.00;97037.63;6299603;28;20239;-60
2024/03/23 03:20:53;;;;;;;2.87;2.40;;;;;;;7.40;100.00;97033.38;6311873;28;20879;-59
2024/03/23 03:23:56;;;;;;;2.40;2.20;;;;;;;7.50;100.00;97024.81;6305299;28;20195;-58
2024/03/23 03:27:00;;;;;;;5.97;2.77;;;;;;;7.39;100.00;97017.69;6304551;28;20193;-57
2024/03/23 03:30:05;;;;;;;3.00;2.50;;;;;;;7.34;100.00;97020.25;6290395;28;20669;-59
2024/03/23 03:33:06;;;;;;;2.50;2.13;;;;;;;7.83;100.00;97021.41;6307384;28;20202;-59
2024/03/23 03:36:07;;;;;;;3.03;2.50;;;;;;;7.37;100.00;97003.88;6312193;28;20202;-59
2024/03/23 03:39:09;;;;;;;2.90;2.50;;;;;;;7.46;100.00;97021.03;6305374;28;20189;-58
2024/03/23 03:42:11;;;;;;;3.47;2.60;;;;;;;7.40;100.00;97011.38;6302507;28;20186;-60
2024/03/23 03:45:12;;;;;;;8.80;2.77;;;;;;;7.38;100.00;97008.94;6311840;28;20214;-59
2024/03/23 03:48:13;;;;;;;4.63;2.67;;;;;;;7.37;100.00;97003.88;6309439;28;20197;-59
2024/03/23 03:51:14;;;;;;;3.47;2.40;;;;;;;7.62;100.00;97006.97;6305442;28;20202;-59
2024/03/23 03:54:15;;;;;;;3.13;2.63;;;;;;;7.41;100.00;97003.19;6303849;28;20571;-58
2024/03/23 03:57:16;;;;;;;2.77;2.27;;;;;;;7.34;100.00;96999.88;6303222;28;20194;-60
2024/03/23 04:00:17;;;;;;;4.63;2.90;;;;;;;7.45;100.00;97001.66;6289036;28;20196;-57
2024/03/23 04:03:18;;;;;;;4.07;2.60;;;;;;;7.78;100.00;97002.72;6309618;28;20605;-59
2024/03/23 04:06:20;;;;;;;4.00;2.90;;;;;;;7.58;100.00;96994.44;6303961;28;20198;-55
2024/03/23 04:09:21;;;;;;;3.57;2.80;;;;;;;7.52;100.00;97006.00;6313505;28;20661;-59
2024/03/23 04:12:23;;;;;;;5.50;3.00;;;;;;;7.46;100.00;96995.31;6313639;28;20288;-60
2024/03/23 04:15:24;;;;;;;3.53;2.70;;;;;;;7.49;100.00;96988.75;6304084;28;20197;-58
2024/03/23 04:18:25;;;;;;;2.67;2.47;;;;;;;7.52;100.00;96992.75;6307150;28;20225;-59
2024/03/23 04:21:26;;;;;;;3.00;2.70;;;;;;;7.48;100.00;96987.91;6320138;28;20282;-58
2024/03/23 04:24:27;;;;;;;3.23;2.63;;;;;;;7.40;100.00;96979.59;6315507;28;20193;-56
2024/03/23 04:27:28;;;;;;;3.10;2.50;;;;;;;7.40;100.00;96975.09;6313718;28;20190;-60
2024/03/23 04:30:30;;;;;;;3.30;2.43;;;;;;;7.62;100.00;96996.38;6290329;28;20244;-60
2024/03/23 04:33:31;;;;;;;4.33;2.60;;;;;;;7.60;100.00;96968.53;6303371;28;20239;-60
2024/03/23 04:36:32;;;;;;;5.03;2.77;;;;;;;7.64;100.00;96980.25;6302147;28;20727;-58
2024/03/23 04:39:33;;;;;;;2.93;2.63;;;;;;;7.60;100.00;96981.78;6312322;28;20216;-61
2024/03/23 04:42:34;;;;;;;2.50;2.30;;;;;;;7.56;100.00;96980.63;6309719;28;20182;-60
2024/03/23 04:45:35;;;;;;;2.60;2.40;;;;;;;7.56;100.00;96976.13;6303168;28;20189;-56
2024/03/23 04:48:36;;;;;;;3.43;2.40;;;;;;;8.04;100.00;96969.47;6308604;28;20260;-59
2024/03/23 04:51:37;;;;;;;3.33;2.30;;;;;;;8.14;100.00;96968.81;6285457;28;20308;-58
2024/03/23 04:54:40;;;;;;;4.77;1.93;;;;;;;7.95;100.00;96970.94;6301805;28;20185;-60
2024/03/23 04:57:41;;;;;;;3.80;2.40;;;;;;;7.71;100.00;96954.38;6305405;28;20197;-60
2024/03/23 05:00:42;;;;;;;2.47;2.07;;;;;;;7.65;100.00;96955.34;6312246;28;20207;-60
2024/03/23 05:03:43;;;;;;;2.27;2.07;;;;;;;7.62;100.00;96963.78;6309841;28;20622;-60
2024/03/23 05:06:44;;;;;;;4.60;1.97;;;;;;;7.63;100.00;96947.63;6305364;28;20572;-59
2024/03/23 05:09:45;;;;;;;2.73;2.47;;;;;;;7.62;100.00;96939.91;6303710;28;20193;-60
2024/03/23 05:12:46;;;;;;;4.80;2.53;;;;;;;7.68;100.00;96941.59;6297742;28;20200;-60
2024/03/23 05:15:56;;;;;;;3.93;2.23;;;;;;;7.61;100.00;96923.22;6308414;28;20195;-60
2024/03/23 05:18:57;;;;;;;2.53;2.33;;;;;;;8.02;100.00;96931.78;6300622;28;20226;-59
2024/03/23 05:21:59;;;;;;;4.23;2.70;;;;;;;7.85;100.00;96931.00;6300107;28;20242;-58
2024/03/23 05:25:00;;;;;;;3.10;2.50;;;;;;;7.67;100.00;96910.84;6306507;28;20187;-58
2024/03/23 05:28:02;;;;;;;3.17;2.43;;;;;;;7.78;100.00;96936.44;6292510;28;20205;-59
2024/03/23 05:31:03;;;;;;;2.73;2.17;;;;;;;7.83;100.00;96923.28;6292183;28;20203;-59
2024/03/23 05:34:04;;;;;;;2.47;2.27;;;;;;;7.87;100.00;96934.19;6298467;28;20490;-60
2024/03/23 05:37:05;;;;;;;2.90;2.50;;;;;;;7.88;100.00;96915.41;6295809;28;20566;-57
2024/03/23 05:40:08;;;;;;;4.27;2.40;;;;;;;7.93;100.00;96915.50;6290776;28;20190;-59
2024/03/23 05:43:09;;;;;;;2.50;2.30;;;;;;;8.01;100.00;96928.31;6304103;28;20209;-59
2024/03/23 05:46:10;;;;;;;2.70;2.37;;;;;;;8.07;100.00;96929.19;6304080;28;20577;-59
2024/03/23 05:49:11;;;;;;;3.07;2.37;;;;;;;8.11;100.00;96937.47;6294881;28;20199;-59
2024/03/23 05:52:13;;;;;;;2.90;2.13;;;;;;;8.21;100.00;96927.00;6275536;28;20257;-61
2024/03/23 05:55:14;;;;;;;6.93;3.20;;;;;;;8.32;100.00;96918.13;6291395;28;20190;-58
2024/03/23 05:58:16;;;;;;;2.67;2.47;;;;;;;8.28;100.00;96919.69;6265402;28;20202;-60
2024/03/23 06:01:17;;;;;;;4.63;2.50;;;;;;;8.32;100.00;96918.13;6299721;28;20662;-60
2024/03/23 06:04:19;;;;;;;3.27;2.00;;;;;;;8.25;100.00;96897.06;6293500;28;20311;-58
2024/03/23 06:07:20;;;;;;;3.17;2.43;;;;;;;8.72;100.00;96915.19;6300223;28;20189;-60
2024/03/23 06:10:21;;;;;;;4.10;2.00;;;;;;;8.67;100.00;96915.16;6298543;28;20190;-61
2024/03/23 06:13:29;;;;;;;2.80;2.60;;;;;;;8.67;100.00;96917.81;6301003;28;20209;-61
2024/03/23 06:16:30;;;;;;;2.27;2.07;;;;;;;8.71;100.00;96908.25;6293503;28;20576;-57
2024/03/23 06:19:31;;;;;;;2.57;2.37;;;;;;;8.74;100.00;96914.94;6291433;28;20668;-60
2024/03/23 06:22:33;;;;;;;4.13;2.17;;;;;;;8.76;100.00;96902.22;6304698;28;20189;-57
2024/03/23 06:25:34;;;;;;;3.20;2.90;;;;;;;8.84;100.00;96906.28;6301121;28;20201;-60
2024/03/23 06:28:35;;;;;;;8.23;2.50;;;;;;;8.87;100.00;96895.97;6296586;28;20281;-60
2024/03/23 06:31:36;;;;;;;2.40;2.20;;;;;;;8.90;100.00;96897.31;6300545;28;20204;-60
2024/03/23 06:34:37;;;;;;;4.63;2.60;;;;;;;8.93;100.00;96894.97;6310895;28;20824;-60
2024/03/23 06:37:41;;;;;;;2.77;2.57;;;;;;;8.96;100.00;96894.44;6286178;28;20195;-60
2024/03/23 06:40:42;;;;;;;2.80;2.53;;;;;;;8.98;100.00;96888.91;6296328;28;20564;-60
2024/03/23 06:43:43;;;;;;;3.57;2.70;;;;;;;9.12;100.00;96894.63;6292877;28;20194;-59
2024/03/23 06:46:45;;;;;;;2.57;2.10;;;;;;;9.18;100.00;96882.97;6287332;28;20191;-60
2024/03/23 06:49:46;;;;;;;2.43;2.23;;;;;;;9.33;100.00;96887.63;6291637;28;20258;-61
2024/03/23 06:52:47;;;;;;;4.00;2.20;;;;;;;9.15;100.00;96871.00;6293752;28;20206;-60
2024/03/23 06:55:52;;;;;;;3.03;2.70;;;;;;;9.62;100.00;96880.94;6294651;28;20194;-60
2024/03/23 06:58:53;;;;;;;3.30;2.23;;;;;;;9.54;100.00;96884.06;6293695;28;20205;-57
2024/03/23 07:01:54;;;;;;;2.97;2.57;;;;;;;9.57;100.00;96876.41;6295128;28;20196;-60
2024/03/23 07:04:55;;;;;;;3.47;2.60;;;;;;;9.76;100.00;96881.31;6292317;28;20625;-60
2024/03/23 07:07:56;;;;;;;4.60;2.40;;;;;;;9.70;100.00;96885.78;6294319;28;20205;-58
2024/03/23 07:10:57;;;;;;;3.03;2.50;;;;;;;9.81;100.00;96884.00;6301372;28;20301;-60
2024/03/23 07:13:58;;;;;;;3.63;2.70;;;;;;;9.89;100.00;96891.50;6287214;28;20208;-60
2024/03/23 07:16:59;;;;;;;4.67;2.70;;;;;;;10.14;99.69;96885.53;6296492;28;20197;-61
2024/03/23 07:20:03;;;;;;;4.73;2.60;;;;;;;10.29;99.16;96885.63;6291456;28;20692;-61
2024/03/23 07:23:04;;;;;;;3.60;2.43;;;;;;;10.40;97.75;96885.69;6289096;28;20217;-60
2024/03/23 07:26:05;;;;;;;2.50;2.30;;;;;;;10.29;97.81;96866.19;6302036;28;20202;-60
2024/03/23 07:29:06;;;;;;;2.63;2.43;;;;;;;10.50;97.02;96883.06;6299856;28;20947;-60
2024/03/23 07:32:07;;;;;;;3.33;2.57;;;;;;;10.62;97.55;96882.84;6296217;28;20224;-57
2024/03/23 07:35:09;;;;;;;2.87;2.50;;;;;;;10.70;95.24;96879.69;6293884;28;20220;-60
2024/03/23 07:38:10;;;;;;;4.97;2.57;;;;;;;10.95;94.12;96863.75;6290635;28;20198;-57
2024/03/23 07:41:21;;;;;;;2.73;2.07;;;;;;;11.14;92.35;96868.59;6290212;28;20197;-56
2024/03/23 07:44:22;;;;;;;2.87;2.37;;;;;;;11.20;91.46;96862.19;6299796;28;20269;-60
2024/03/23 07:47:23;;;;;;;2.63;2.00;;;;;;;11.55;88.60;96859.50;6295799;28;20190;-60
2024/03/23 07:50:24;;;;;;;2.30;2.10;;;;;;;11.85;85.88;96855.22;6290143;28;20606;-57
2024/03/23 07:53:25;;;;;;;2.10;1.80;;;;;;;11.92;86.91;96850.44;6290252;28;20195;-60
2024/03/23 07:56:26;;;;;;;1.80;1.70;;;;;;;12.22;87.41;96833.53;6303339;28;20183;-58
2024/03/23 07:59:31;;;;;;;2.07;1.60;;;;;;;12.67;84.26;96842.41;6297253;28;20194;-61
2024/03/23 08:02:32;;;;;;;2.17;2.00;;;;;;;12.92;83.89;96825.41;6292692;28;20789;-60
2024/03/23 08:05:33;;;;;;;2.03;1.80;;;;;;;13.20;80.51;96828.41;6283665;28;20531;-60
2024/03/23 08:08:35;;;;;;;1.73;1.63;;;;;;;13.48;75.05;96824.22;6290481;28;20203;-61
2024/03/23 08:11:36;;;;;;;1.60;1.27;;;;;;;13.90;72.94;96820.88;6293506;28;20207;-59
2024/03/23 08:14:37;;;;;;;2.60;1.50;;;;;;;14.23;69.37;96810.31;6293255;28;20189;-61
2024/03/23 08:17:38;;;;;;;1.90;1.27;;;;;;;14.43;71.86;96802.84;6289292;28;20229;-59
2024/03/23 08:20:39;;;;;;;1.20;1.10;;;;;;;14.66;69.66;96808.47;6307723;28;20275;-59
2024/03/23 08:23:40;;;;;;;0.87;0.80;;;;;;;14.93;63.86;96802.44;6303337;28;20670;-60
2024/03/23 08:26:41;;;;;;;1.73;1.07;;;;;;;15.26;59.98;96783.69;6300656;28;20247;-59
2024/03/23 08:29:42;;;;;;;1.57;1.10;;;;;;;15.66;61.73;96774.16;6293941;28;20277;-60
2024/03/23 08:32:43;;;;;;;1.40;0.97;;;;;;;16.03;58.33;96770.50;6293877;28;20194;-61
2024/03/23 08:35:54;;;;;;;3.33;1.30;;;;;;;16.25;51.76;96759.03;6289761;28;20194;-60
2024/03/23 08:38:55;;;;;;;3.57;0.90;;;;;;;16.86;45.21;96759.63;6295830;28;20563;-60
2024/03/23 08:41:56;;;;;;;1.87;0.80;;;;;;;17.37;44.23;96750.31;6296223;28;20908;-60
2024/03/23 08:44:57;;;;;;;1.80;1.03;;;;;;;17.83;42.18;96735.66;6293651;28;20646;-59
2024/03/23 08:47:58;;;;;;;1.77;1.00;;;;;;;18.16;41.29;96741.47;6298257;28;20190;-61
2024/03/23 08:51:04;;;;;;;1.50;0.80;;;;;;;18.32;44.86;96739.91;6294604;28;20209;-60
2024/03/23 08:54:05;;;;;;;1.97;1.10;;;;;;;18.70;41.04;96726.66;6293518;28;20248;-61
2024/03/23 08:57:07;;;;;;;1.43;0.80;;;;;;;18.53;39.96;96699.69;6293366;28;20198;-61
2024/03/23 09:00:08;;;;;;;2.20;1.10;;;;;;;18.87;41.97;96719.69;6291748;28;20579;-60
2024/03/23 09:03:09;;;;;;;1.30;1.00;;;;;;;19.00;38.33;96710.63;6293568;28;20568;-61
2024/03/23 09:06:12;;;;;;;1.83;1.13;;;;;;;18.63;38.27;96675.06;6295400;28;20224;-59
2024/03/23 09:09:13;;;;;;;2.13;1.10;;;;;;;19.00;38.70;96707.91;6277894;28;20183;-60
2024/03/23 09:12:14;;;;;;;0.80;0.80;;;;;;;19.28;39.49;96692.94;6290685;28;20434;-58
2024/03/23 09:15:15;;;;;;;3.00;1.03;;;;;;;19.36;37.25;96691.34;6292838;28;20202;-56
2024/03/23 09:18:17;;;;;;;1.47;1.00;;;;;;;19.69;37.93;96688.06;6294972;28;20222;-59
2024/03/23 09:21:18;;;;;;;2.17;1.13;;;;;;;20.03;37.54;96673.56;6293278;28;20546;-60
2024/03/23 09:24:19;;;;;;;4.87;1.10;;;;;;;20.24;40.26;96663.56;6280126;28;20194;-59
2024/03/23 09:27:20;;;;;;;1.57;0.90;;;;;;;20.22;37.22;96663.09;6297992;28;20185;-60
2024/03/23 09:30:21;;;;;;;1.47;1.00;;;;;;;20.22;35.04;96636.06;6297443;28;20240;-58
2024/03/23 09:33:22;;;;;;;2.90;1.10;;;;;;;20.19;38.04;96660.25;6291076;28;20186;-57
2024/03/23 09:36:23;;;;;;;1.67;1.17;;;;;;;20.25;35.93;96640.03;6291292;28;20193;-58
2024/03/23 09:39:24;;;;;;;1.60;0.83;;;;;;;20.26;33.05;96625.38;6290326;28;20202;-60
2024/03/23 09:42:26;;;;;;;2.13;0.90;;;;;;;20.33;33.50;96631.81;6298380;28;20187;-59
2024/03/23 09:45:29;;;;;;;2.20;0.97;;;;;;;20.31;35.95;96623.25;6275355;28;20202;-59
2024/03/23 09:48:31;;;;;;;1.40;0.70;;;;;;;20.49;35.81;96613.13;6308909;28;20186;-60
2024/03/23 09:51:32;;;;;;;1.83;0.90;;;;;;;20.67;33.97;96602.91;6299753;28;20210;-60
2024/03/23 09:54:33;;;;;;;2.37;1.00;;;;;;;20.50;34.13;96609.31;6301030;28;21102;-59
2024/03/23 09:57:34;;;;;;;1.97;1.17;;;;;;;20.01;32.07;96597.41;6294162;28;20202;-56
2024/03/23 10:00:35;;;;;;;1.90;0.97;;;;;;;19.97;35.06;96596.50;6292387;28;20205;-59
2024/03/23 10:03:45;;;;;;;1.83;0.90;;;;;;;20.44;34.61;96593.56;6302100;28;20202;-60
2024/03/23 10:06:46;;;;;;;1.27;0.80;;;;;;;20.38;32.24;96582.16;6305418;28;20236;-60
2024/03/23 10:09:48;;;;;;;0.90;0.80;;;;;;;20.47;31.25;96582.09;6301140;28;20228;-58
2024/03/23 10:12:52;;;;;;;1.53;0.93;;;;;;;20.39;33.00;96580.22;6292266;28;20207;-60
2024/03/23 10:15:58;;;;;;;1.60;0.80;;;;;;;20.55;34.66;96575.84;6299987;28;20197;-60
2024/03/23 10:18:59;;;;;;;3.37;1.27;;;;;;;20.24;31.76;96560.78;6300471;28;20239;-60
2024/03/23 10:22:00;;;;;;;0.70;0.70;;;;;;;20.28;31.74;96556.31;6294891;28;20673;-61
2024/03/23 10:25:11;;;;;;;0.90;0.60;;;;;;;20.59;31.84;96557.78;6295679;28;20222;-60
2024/03/23 10:28:12;;;;;;;3.93;2.60;;;;;;;20.78;33.10;96570.81;6301386;28;20596;-59
2024/03/23 10:31:13;;;;;;;1.30;0.80;;;;;;;20.57;32.43;96550.00;6294943;28;20210;-60
2024/03/23 10:34:14;;;;;;;1.07;0.80;;;;;;;20.89;34.47;96555.75;6293750;28;20186;-59
2024/03/23 10:37:16;;;;;;;2.33;1.00;;;;;;;20.78;31.10;96544.53;6297524;28;20198;-58
2024/03/23 10:40:18;;;;;;;2.53;0.93;;;;;;;20.81;31.36;96543.88;6283788;28;20195;-60
2024/03/23 10:43:19;;;;;;;3.07;0.93;;;;;;;20.46;32.28;96515.56;6301941;28;20293;-58
2024/03/23 10:46:20;;;;;;;2.17;1.20;;;;;;;21.02;32.99;96532.94;6303159;28;20201;-60
2024/03/23 10:49:22;;;;;;;1.00;0.90;;;;;;;21.34;32.01;96523.19;6278897;28;20210;-60
2024/03/23 10:52:23;;;;;;;3.70;1.10;;;;;;;21.04;31.32;96533.41;6290935;28;20202;-59
2024/03/23 10:55:24;;;;;;;2.17;0.93;;;;;;;20.84;32.10;96502.59;6292646;28;20189;-59
2024/03/23 10:58:38;;;;;;;1.83;0.90;;;;;;;20.94;32.40;96519.53;6305498;28;20251;-59
2024/03/23 11:01:56;;;;;;;2.60;0.87;;;;;;;21.27;30.95;96511.28;6294321;28;20647;-60
2024/03/23 11:04:57;;;;;;;2.73;1.10;;;;;;;21.13;31.33;96501.59;6290885;28;20228;-60
2024/03/23 11:07:58;;;;;;;2.00;1.17;;;;;;;21.18;30.42;96507.91;6293849;28;20193;-60
2024/03/23 11:11:20;;;;;;;1.00;0.83;;;;;;;20.97;32.92;96495.25;6293892;28;20228;-60
2024/03/23 11:14:24;;;;;;;2.60;1.10;;;;;;;20.87;33.44;96491.09;6283025;28;20777;-59
2024/03/23 11:17:26;;;;;;;1.07;0.77;;;;;;;21.12;31.61;96502.72;6285594;28;20191;-61
2024/03/23 11:20:32;;;;;;;1.40;0.80;;;;;;;21.00;30.31;96481.06;6290225;28;20207;-59
2024/03/23 11:23:33;;;;;;;1.73;0.80;;;;;;;20.67;31.46;96475.72;6290145;28;20190;-60
2024/03/23 11:26:39;;;;;;;1.67;0.77;;;;;;;20.52;31.29;96481.78;6289937;28;20197;-59
2024/03/23 11:29:41;;;;;;;1.03;0.93;;;;;;;20.34;33.19;96475.72;6291891;28;20205;-60
2024/03/23 11:32:44;;;;;;;3.70;1.10;;;;;;;20.30;32.97;96478.34;6291991;28;20203;-59
2024/03/23 11:35:48;;;;;;;1.67;1.00;;;;;;;20.34;33.01;96481.16;6289832;28;20202;-59
2024/03/23 11:38:49;;;;;;;2.73;1.00;;;;;;;19.97;34.09;96472.91;6292628;28;20200;-59
2024/03/23 11:41:51;;;;;;;2.17;1.17;;;;;;;19.99;34.72;96464.47;6298964;28;20186;-59
2024/03/23 11:44:53;;;;;;;1.93;1.20;;;;;;;19.92;34.83;96462.31;6276223;28;20191;-55
2024/03/23 11:48:12;;;;;;;2.50;1.10;;;;;;;19.79;36.19;96461.47;6289432;28;20625;-58
2024/03/23 11:51:13;;;;;;;2.60;1.13;;;;;;;19.51;37.15;96466.59;6290407;28;20205;-60
2024/03/23 11:54:14;;;;;;;1.40;1.17;;;;;;;19.48;37.58;96469.16;6298583;28;20194;-59
2024/03/23 11:57:16;;;;;;;3.37;1.23;;;;;;;19.42;36.69;96460.47;6300536;28;20244;-59
2024/03/23 12:00:21;;;;;;;2.77;0.93;;;;;;;19.28;38.45;96473.41;6293208;28;20202;-59
2024/03/23 12:03:25;;;;;;;2.03;1.17;;;;;;;19.10;38.07;96467.31;6309130;28;20276;-58
2024/03/23 12:06:27;;;;;;;3.03;1.13;;;;;;;18.92;38.35;96461.25;6298458;28;20252;-59
2024/03/23 12:09:28;;;;;;;1.07;0.80;;;;;;;18.86;39.44;96464.44;6295244;28;20195;-61
2024/03/23 12:12:29;;;;;;;2.90;1.33;;;;;;;18.95;38.73;96459.78;6295495;28;20210;-59
2024/03/23 12:15:30;;;;;;;1.93;1.10;;;;;;;18.88;39.50;96462.22;6296208;28;20871;-60
2024/03/23 12:18:31;;;;;;;1.33;1.13;;;;;;;18.78;40.50;96468.75;6296026;28;20233;-59
2024/03/23 12:21:32;;;;;;;1.53;1.17;;;;;;;18.90;39.13;96476.16;6289868;28;20198;-60
2024/03/23 12:24:36;;;;;;;2.87;1.57;;;;;;;18.86;39.60;96469.81;6295655;28;20201;-56
2024/03/23 12:27:42;;;;;;;3.73;1.33;;;;;;;18.73;41.76;96472.44;6302688;28;20186;-57
2024/03/23 12:30:43;;;;;;;3.93;1.20;;;;;;;18.60;41.83;96456.44;6293858;28;20830;-60
2024/03/23 12:33:44;;;;;;;3.63;1.10;;;;;;;18.39;41.32;96465.22;6297141;28;20248;-59
2024/03/23 12:36:46;;;;;;;2.17;1.20;;;;;;;18.31;42.29;96463.34;6294902;28;20605;-58
2024/03/23 12:39:49;;;;;;;1.83;1.20;;;;;;;18.17;43.21;96477.00;6289259;28;20207;-58
2024/03/23 12:42:50;;;;;;;3.57;1.70;;;;;;;17.84;44.83;96521.75;6283226;28;20910;-59
2024/03/23 12:45:51;;;;;;;3.73;1.40;;;;;;;17.09;48.14;96554.00;6292634;28;20193;-58
2024/03/23 12:48:52;;;;;;;2.63;1.33;;;;;;;16.41;53.44;96571.38;6295887;28;20205;-57
2024/03/23 12:51:55;;;;;;;1.40;1.30;;;;;;;15.70;54.60;96552.31;6288990;28;20730;-58
2024/03/23 12:54:56;;;;;;;2.03;1.30;;;;;;;15.44;57.14;96566.25;6301584;28;20183;-59
2024/03/23 12:57:57;;;;;;;1.73;0.90;;;;;;;14.79;59.35;96603.97;6294983;28;20194;-60
2024/03/23 13:00:59;;;;;;;1.67;0.83;;;;;;;14.24;59.40;96592.28;6295321;28;20196;-60
2024/03/23 13:04:01;;;;;;;1.97;0.80;;;;;;;14.02;60.75;96604.34;6289068;28;20715;-60
2024/03/23 13:07:02;;;;;;;1.87;0.93;;;;;;;13.53;62.97;96602.88;6286994;28;20191;-61
2024/03/23 13:10:07;;;;;;;0.70;0.70;;;;;;;13.37;63.53;96647.75;6276681;28;20829;-59
2024/03/23 13:13:08;;;;;;;2.40;0.83;;;;;;;13.35;64.40;96673.19;6298677;28;20206;-60
2024/03/23 13:16:09;;;;;;;1.00;0.90;;;;;;;12.78;67.29;96672.09;6292636;28;20244;-59
2024/03/23 13:19:10;;;;;;;1.07;0.80;;;;;;;12.62;68.78;96688.25;6301571;28;20225;-59
2024/03/23 13:22:11;;;;;;;0.90;0.70;;;;;;;12.32;70.71;96691.94;6307232;28;20194;-58
2024/03/23 13:25:12;;;;;;;0.70;0.70;;;;;;;12.27;69.94;96725.88;6299437;28;20201;-58
2024/03/23 13:28:13;;;;;;;0.97;0.70;;;;;;;12.03;72.48;96742.56;6294118;28;20194;-60
2024/03/23 13:31:14;;;;;;;1.97;0.80;;;;;;;11.59;75.25;96753.09;6275794;28;20206;-59
2024/03/23 13:34:16;;;;;;;1.97;1.00;;;;;;;11.26;83.32;96755.25;6300152;28;20681;-59
2024/03/23 13:37:17;;;;;;;2.30;0.90;;;;;;;11.21;84.72;96763.28;6292783;28;20678;-58
2024/03/23 13:40:20;;;;;;;3.87;0.80;;;;;;;10.93;81.98;96767.25;6292790;28;20240;-56
2024/03/23 13:43:21;;;;;;;0.93;0.60;;;;;;;10.76;79.08;96756.09;6293392;28;20194;-59
2024/03/23 13:46:22;;;;;;;0.87;0.70;;;;;;;10.81;81.65;96751.56;6294553;28;20196;-59
2024/03/23 13:49:28;;;;;;;0.77;0.77;;;;;;;10.78;80.58;96752.06;6291354;28;20196;-61
2024/03/23 13:52:31;;;;;;;0.60;0.60;;;;;;;10.71;84.03;96762.19;6291780;28;20210;-61
2024/03/23 13:55:32;;;;;;;1.00;0.70;;;;;;;10.58;83.02;96773.34;6294740;28;20245;-58
2024/03/23 13:58:33;;;;;;;0.63;0.50;;;;;;;10.43;83.81;96763.47;6290491;28;20227;-54
2024/03/23 14:01:34;;;;;;;1.20;0.93;;;;;;;10.29;89.76;96771.16;6294611;28;20217;-57
2024/03/23 14:04:35;;;;;;;1.63;0.83;;;;;;;10.11;91.63;96771.63;6292039;28;20202;-61
2024/03/23 14:07:37;;;;;;;1.47;0.80;;;;;;;9.84;88.69;96753.13;6288886;28;20193;-61
2024/03/23 14:10:42;;;;;;;1.17;0.80;;;;;;;9.85;91.97;96765.38;6291218;28;20200;-60
2024/03/23 14:13:44;;;;;;;0.80;0.80;;;;;;;9.81;95.11;96769.63;6299002;28;20201;-59
2024/03/23 14:16:45;;;;;;;0.90;0.87;;;;;;;9.56;93.83;96757.00;6298557;28;20190;-56